sensor_id;sensor_type;location;lat;lon;timestamp;temperature;humidity
23803;DHT22;12082;51.786;6.018;2023-05-20T00:01:16;9.90;99.90
23803;DHT22;12082;51.786;6.018;2023-05-20T00:03:41;9.90;99.90
23803;DHT22;12082;51.786;6.018;2023-05-20T00:06:07;9.80;99.90
23803;DHT22;12082;51.786;6.018;2023-05-20T00:08:32;9.80;99.90
23803;DHT22;12082;51.786;6.018;2023-05-20T00:10:58;9.70;99.90
23803;DHT22;12082;51.786;6.018;2023-05-20T00:13:23;9.70;99.90
23803;DHT22;12082;51.786;6.018;2023-05-20T00:15:51;9.70;99.90
23803;DHT22;12082;51.786;6.018;2023-05-20T00:18:17;9.60;99.90
23803;DHT22;12082;51.786;6.018;2023-05-20T00:20:43;9.60;99.90
23803;DHT22;12082;51.786;6.018;2023-05-20T00:23:09;9.60;99.90
23803;DHT22;12082;51.786;6.018;2023-05-20T00:25:34;9.60;99.90
23803;DHT22;12082;51.786;6.018;2023-05-20T00:28:00;9.50;99.90
23803;DHT22;12082;51.786;6.018;2023-05-20T00:30:25;9.50;99.90
23803;DHT22;12082;51.786;6.018;2023-05-20T00:32:51;9.50;99.90
23803;DHT22;12082;51.786;6.018;2023-05-20T00:35:16;9.50;99.90
23803;DHT22;12082;51.786;6.018;2023-05-20T00:37:42;10.50;99.90
23803;DHT22;12082;51.786;6.018;2023-05-20T00:40:08;9.50;99.90
23803;DHT22;12082;51.786;6.018;2023-05-20T00:42:33;9.40;99.90
23803;DHT22;12082;51.786;6.018;2023-05-20T00:44:59;9.40;99.90
23803;DHT22;12082;51.786;6.018;2023-05-20T00:47:28;9.50;99.90
23803;DHT22;12082;51.786;6.018;2023-05-20T00:49:55;9.40;99.90
23803;DHT22;12082;51.786;6.018;2023-05-20T00:52:21;9.40;99.90
23803;DHT22;12082;51.786;6.018;2023-05-20T00:54:48;9.40;99.90
23803;DHT22;12082;51.786;6.018;2023-05-20T00:57:14;9.40;99.90
23803;DHT22;12082;51.786;6.018;2023-05-20T00:59:40;9.40;99.90
23803;DHT22;12082;51.786;6.018;2023-05-20T01:02:06;9.40;99.90
23803;DHT22;12082;51.786;6.018;2023-05-20T01:04:32;9.40;99.90
23803;DHT22;12082;51.786;6.018;2023-05-20T01:07:00;9.40;99.90
23803;DHT22;12082;51.786;6.018;2023-05-20T01:09:27;9.50;99.90
23803;DHT22;12082;51.786;6.018;2023-05-20T01:12:15;9.50;99.90
23803;DHT22;12082;51.786;6.018;2023-05-20T01:14:50;9.60;99.90
23803;DHT22;12082;51.786;6.018;2023-05-20T01:17:23;9.70;99.90
23803;DHT22;12082;51.786;6.018;2023-05-20T01:19:53;9.70;99.90
23803;DHT22;12082;51.786;6.018;2023-05-20T01:22:27;9.70;99.90
23803;DHT22;12082;51.786;6.018;2023-05-20T01:24:52;9.80;99.90
23803;DHT22;12082;51.786;6.018;2023-05-20T01:27:19;9.80;99.90
23803;DHT22;12082;51.786;6.018;2023-05-20T01:29:47;9.90;99.90
23803;DHT22;12082;51.786;6.018;2023-05-20T01:32:27;9.90;99.90
23803;DHT22;12082;51.786;6.018;2023-05-20T01:34:53;10.00;99.90
23803;DHT22;12082;51.786;6.018;2023-05-20T01:37:21;10.00;99.90
23803;DHT22;12082;51.786;6.018;2023-05-20T01:39:48;10.00;99.90
23803;DHT22;12082;51.786;6.018;2023-05-20T01:42:15;10.00;99.90
23803;DHT22;12082;51.786;6.018;2023-05-20T01:44:41;9.90;99.90
23803;DHT22;12082;51.786;6.018;2023-05-20T01:47:07;9.90;99.90
23803;DHT22;12082;51.786;6.018;2023-05-20T01:49:33;9.90;99.90
23803;DHT22;12082;51.786;6.018;2023-05-20T01:51:58;9.90;99.90
23803;DHT22;12082;51.786;6.018;2023-05-20T01:54:24;9.80;99.90
23803;DHT22;12082;51.786;6.018;2023-05-20T01:56:50;9.80;99.90
23803;DHT22;12082;51.786;6.018;2023-05-20T01:59:16;9.80;99.90
23803;DHT22;12082;51.786;6.018;2023-05-20T02:01:41;9.70;99.90
23803;DHT22;12082;51.786;6.018;2023-05-20T02:04:07;9.60;99.90
23803;DHT22;12082;51.786;6.018;2023-05-20T02:06:32;9.60;99.90
23803;DHT22;12082;51.786;6.018;2023-05-20T02:08:58;9.50;99.90
23803;DHT22;12082;51.786;6.018;2023-05-20T02:11:24;9.50;99.90
23803;DHT22;12082;51.786;6.018;2023-05-20T02:13:50;9.60;99.90
23803;DHT22;12082;51.786;6.018;2023-05-20T02:16:16;9.50;99.90
23803;DHT22;12082;51.786;6.018;2023-05-20T02:18:41;9.50;99.90
23803;DHT22;12082;51.786;6.018;2023-05-20T02:21:08;9.50;99.90
23803;DHT22;12082;51.786;6.018;2023-05-20T02:23:34;9.50;99.90
23803;DHT22;12082;51.786;6.018;2023-05-20T02:26:00;9.50;99.90
23803;DHT22;12082;51.786;6.018;2023-05-20T02:28:26;9.50;99.90
23803;DHT22;12082;51.786;6.018;2023-05-20T02:30:51;9.40;99.90
23803;DHT22;12082;51.786;6.018;2023-05-20T02:33:18;9.40;99.90
23803;DHT22;12082;51.786;6.018;2023-05-20T02:35:43;9.40;99.90
23803;DHT22;12082;51.786;6.018;2023-05-20T02:38:10;9.30;99.90
23803;DHT22;12082;51.786;6.018;2023-05-20T02:40:36;9.40;99.90
23803;DHT22;12082;51.786;6.018;2023-05-20T02:43:01;9.30;99.90
23803;DHT22;12082;51.786;6.018;2023-05-20T02:45:27;9.30;99.90
23803;DHT22;12082;51.786;6.018;2023-05-20T02:47:52;9.20;99.90
23803;DHT22;12082;51.786;6.018;2023-05-20T02:50:18;9.20;99.90
23803;DHT22;12082;51.786;6.018;2023-05-20T02:52:44;9.10;99.90
23803;DHT22;12082;51.786;6.018;2023-05-20T02:55:10;9.10;99.90
23803;DHT22;12082;51.786;6.018;2023-05-20T02:57:36;9.10;99.90
23803;DHT22;12082;51.786;6.018;2023-05-20T03:00:05;9.10;99.90
23803;DHT22;12082;51.786;6.018;2023-05-20T03:02:32;9.10;99.90
23803;DHT22;12082;51.786;6.018;2023-05-20T03:04:58;9.00;99.90
23803;DHT22;12082;51.786;6.018;2023-05-20T03:07:23;8.90;99.90
23803;DHT22;12082;51.786;6.018;2023-05-20T03:09:49;8.80;99.90
23803;DHT22;12082;51.786;6.018;2023-05-20T03:12:14;8.80;99.90
23803;DHT22;12082;51.786;6.018;2023-05-20T03:14:40;8.70;99.90
23803;DHT22;12082;51.786;6.018;2023-05-20T03:17:05;8.60;99.90
23803;DHT22;12082;51.786;6.018;2023-05-20T03:19:31;8.50;99.90
23803;DHT22;12082;51.786;6.018;2023-05-20T03:21:57;8.50;99.90
23803;DHT22;12082;51.786;6.018;2023-05-20T03:24:22;8.40;99.90
23803;DHT22;12082;51.786;6.018;2023-05-20T03:26:48;8.40;99.90
23803;DHT22;12082;51.786;6.018;2023-05-20T03:29:14;8.30;99.90
23803;DHT22;12082;51.786;6.018;2023-05-20T03:31:42;8.30;99.90
23803;DHT22;12082;51.786;6.018;2023-05-20T03:34:07;8.30;99.90
23803;DHT22;12082;51.786;6.018;2023-05-20T03:36:33;8.30;99.90
23803;DHT22;12082;51.786;6.018;2023-05-20T03:38:59;8.30;99.90
23803;DHT22;12082;51.786;6.018;2023-05-20T03:41:26;8.20;99.90
23803;DHT22;12082;51.786;6.018;2023-05-20T03:43:51;8.20;99.90
23803;DHT22;12082;51.786;6.018;2023-05-20T03:46:17;8.20;99.90
23803;DHT22;12082;51.786;6.018;2023-05-20T03:48:42;8.20;99.90
23803;DHT22;12082;51.786;6.018;2023-05-20T03:51:08;8.20;99.90
23803;DHT22;12082;51.786;6.018;2023-05-20T03:53:33;8.10;99.90
23803;DHT22;12082;51.786;6.018;2023-05-20T03:55:59;8.10;99.90
23803;DHT22;12082;51.786;6.018;2023-05-20T03:58:25;8.10;99.90
23803;DHT22;12082;51.786;6.018;2023-05-20T04:00:54;8.00;99.90
23803;DHT22;12082;51.786;6.018;2023-05-20T04:03:19;8.00;99.90
23803;DHT22;12082;51.786;6.018;2023-05-20T04:05:45;8.00;99.90
23803;DHT22;12082;51.786;6.018;2023-05-20T04:08:10;8.00;99.90
23803;DHT22;12082;51.786;6.018;2023-05-20T04:10:40;8.00;99.90
23803;DHT22;12082;51.786;6.018;2023-05-20T04:13:07;8.00;99.90
23803;DHT22;12082;51.786;6.018;2023-05-20T04:15:35;8.00;99.90
23803;DHT22;12082;51.786;6.018;2023-05-20T04:18:01;8.00;99.90
23803;DHT22;12082;51.786;6.018;2023-05-20T04:20:26;8.00;99.90
23803;DHT22;12082;51.786;6.018;2023-05-20T04:22:52;8.10;99.90
23803;DHT22;12082;51.786;6.018;2023-05-20T04:25:18;8.10;99.90
23803;DHT22;12082;51.786;6.018;2023-05-20T04:27:44;8.10;99.90
23803;DHT22;12082;51.786;6.018;2023-05-20T04:30:10;8.20;99.90
23803;DHT22;12082;51.786;6.018;2023-05-20T04:32:36;8.20;99.90
23803;DHT22;12082;51.786;6.018;2023-05-20T04:35:02;8.20;99.90
23803;DHT22;12082;51.786;6.018;2023-05-20T04:37:32;8.20;99.90
23803;DHT22;12082;51.786;6.018;2023-05-20T04:39:57;8.30;99.90
23803;DHT22;12082;51.786;6.018;2023-05-20T04:42:23;8.30;99.90
23803;DHT22;12082;51.786;6.018;2023-05-20T04:44:48;8.40;99.90
23803;DHT22;12082;51.786;6.018;2023-05-20T04:47:14;8.40;99.90
23803;DHT22;12082;51.786;6.018;2023-05-20T04:49:40;8.50;99.90
23803;DHT22;12082;51.786;6.018;2023-05-20T04:52:06;8.50;99.90
23803;DHT22;12082;51.786;6.018;2023-05-20T04:54:32;8.60;99.90
23803;DHT22;12082;51.786;6.018;2023-05-20T04:56:58;8.70;99.90
23803;DHT22;12082;51.786;6.018;2023-05-20T04:59:24;8.70;99.90
23803;DHT22;12082;51.786;6.018;2023-05-20T05:01:49;8.80;99.90
23803;DHT22;12082;51.786;6.018;2023-05-20T05:04:15;8.80;99.90
23803;DHT22;12082;51.786;6.018;2023-05-20T05:06:40;8.90;99.90
23803;DHT22;12082;51.786;6.018;2023-05-20T05:09:06;9.00;99.90
23803;DHT22;12082;51.786;6.018;2023-05-20T05:11:32;9.10;99.90
23803;DHT22;12082;51.786;6.018;2023-05-20T05:13:58;9.20;99.90
23803;DHT22;12082;51.786;6.018;2023-05-20T05:16:23;9.30;99.90
23803;DHT22;12082;51.786;6.018;2023-05-20T05:18:49;9.50;99.90
23803;DHT22;12082;51.786;6.018;2023-05-20T05:21:15;9.60;99.90
23803;DHT22;12082;51.786;6.018;2023-05-20T05:23:40;9.80;99.90
23803;DHT22;12082;51.786;6.018;2023-05-20T05:26:06;10.00;99.90
23803;DHT22;12082;51.786;6.018;2023-05-20T05:28:32;10.10;99.90
23803;DHT22;12082;51.786;6.018;2023-05-20T05:30:58;10.30;99.90
23803;DHT22;12082;51.786;6.018;2023-05-20T05:33:23;10.40;99.90
23803;DHT22;12082;51.786;6.018;2023-05-20T05:35:49;10.50;99.90
23803;DHT22;12082;51.786;6.018;2023-05-20T05:38:15;10.70;99.90
23803;DHT22;12082;51.786;6.018;2023-05-20T05:40:41;11.00;99.90
23803;DHT22;12082;51.786;6.018;2023-05-20T05:43:06;11.50;99.90
23803;DHT22;12082;51.786;6.018;2023-05-20T05:45:32;12.60;99.90
23803;DHT22;12082;51.786;6.018;2023-05-20T05:47:57;13.80;99.90
23803;DHT22;12082;51.786;6.018;2023-05-20T05:50:23;15.00;99.90
23803;DHT22;12082;51.786;6.018;2023-05-20T05:52:48;15.90;99.90
23803;DHT22;12082;51.786;6.018;2023-05-20T05:55:14;16.90;99.90
23803;DHT22;12082;51.786;6.018;2023-05-20T05:57:40;17.50;99.90
23803;DHT22;12082;51.786;6.018;2023-05-20T06:00:06;18.00;99.90
23803;DHT22;12082;51.786;6.018;2023-05-20T06:02:32;18.30;99.90
23803;DHT22;12082;51.786;6.018;2023-05-20T06:05:02;18.70;99.90
23803;DHT22;12082;51.786;6.018;2023-05-20T06:07:27;18.80;99.90
23803;DHT22;12082;51.786;6.018;2023-05-20T06:09:53;19.00;99.90
23803;DHT22;12082;51.786;6.018;2023-05-20T06:12:18;19.40;99.90
23803;DHT22;12082;51.786;6.018;2023-05-20T06:14:44;19.70;99.90
23803;DHT22;12082;51.786;6.018;2023-05-20T06:17:09;19.70;99.90
23803;DHT22;12082;51.786;6.018;2023-05-20T06:19:35;19.50;99.90
23803;DHT22;12082;51.786;6.018;2023-05-20T06:22:00;19.60;99.90
23803;DHT22;12082;51.786;6.018;2023-05-20T06:24:26;19.50;99.90
23803;DHT22;12082;51.786;6.018;2023-05-20T06:26:53;19.60;99.90
23803;DHT22;12082;51.786;6.018;2023-05-20T06:29:20;19.60;99.90
23803;DHT22;12082;51.786;6.018;2023-05-20T06:31:46;19.70;99.90
23803;DHT22;12082;51.786;6.018;2023-05-20T06:34:11;19.80;99.90
23803;DHT22;12082;51.786;6.018;2023-05-20T06:36:37;19.80;99.90
23803;DHT22;12082;51.786;6.018;2023-05-20T06:39:03;19.80;99.90
23803;DHT22;12082;51.786;6.018;2023-05-20T06:41:30;20.20;99.90
23803;DHT22;12082;51.786;6.018;2023-05-20T06:43:56;20.30;99.90
23803;DHT22;12082;51.786;6.018;2023-05-20T06:46:22;20.40;99.90
23803;DHT22;12082;51.786;6.018;2023-05-20T06:48:47;20.40;99.90
23803;DHT22;12082;51.786;6.018;2023-05-20T06:51:13;20.30;99.90
23803;DHT22;12082;51.786;6.018;2023-05-20T06:53:38;20.20;99.90
23803;DHT22;12082;51.786;6.018;2023-05-20T06:56:04;20.40;99.90
23803;DHT22;12082;51.786;6.018;2023-05-20T06:58:30;20.60;99.90
23803;DHT22;12082;51.786;6.018;2023-05-20T07:00:55;20.50;99.90
23803;DHT22;12082;51.786;6.018;2023-05-20T07:03:22;20.30;99.90
23803;DHT22;12082;51.786;6.018;2023-05-20T07:05:49;20.90;99.90
23803;DHT22;12082;51.786;6.018;2023-05-20T07:08:14;21.00;99.90
23803;DHT22;12082;51.786;6.018;2023-05-20T07:10:40;21.00;99.90
23803;DHT22;12082;51.786;6.018;2023-05-20T07:13:05;20.60;99.90
23803;DHT22;12082;51.786;6.018;2023-05-20T07:15:31;20.80;99.90
23803;DHT22;12082;51.786;6.018;2023-05-20T07:17:56;20.90;99.90
23803;DHT22;12082;51.786;6.018;2023-05-20T07:20:22;20.70;99.90
23803;DHT22;12082;51.786;6.018;2023-05-20T07:22:47;20.80;99.90
23803;DHT22;12082;51.786;6.018;2023-05-20T07:25:15;20.40;99.90
23803;DHT22;12082;51.786;6.018;2023-05-20T07:27:40;20.60;99.90
23803;DHT22;12082;51.786;6.018;2023-05-20T07:30:06;20.50;99.90
23803;DHT22;12082;51.786;6.018;2023-05-20T07:32:32;20.90;99.90
23803;DHT22;12082;51.786;6.018;2023-05-20T07:34:58;20.80;99.90
23803;DHT22;12082;51.786;6.018;2023-05-20T07:37:24;20.70;99.90
23803;DHT22;12082;51.786;6.018;2023-05-20T07:39:49;20.80;99.90
23803;DHT22;12082;51.786;6.018;2023-05-20T07:42:15;21.00;99.90
23803;DHT22;12082;51.786;6.018;2023-05-20T07:44:40;21.10;99.90
23803;DHT22;12082;51.786;6.018;2023-05-20T07:47:06;20.80;99.90
23803;DHT22;12082;51.786;6.018;2023-05-20T07:49:32;21.00;99.90
23803;DHT22;12082;51.786;6.018;2023-05-20T07:51:57;20.80;99.90
23803;DHT22;12082;51.786;6.018;2023-05-20T07:54:23;20.90;99.90
23803;DHT22;12082;51.786;6.018;2023-05-20T07:56:48;21.10;99.90
23803;DHT22;12082;51.786;6.018;2023-05-20T07:59:14;21.00;99.90
23803;DHT22;12082;51.786;6.018;2023-05-20T08:01:40;20.90;99.90
23803;DHT22;12082;51.786;6.018;2023-05-20T08:04:07;20.80;99.90
23803;DHT22;12082;51.786;6.018;2023-05-20T08:06:32;20.70;99.90
23803;DHT22;12082;51.786;6.018;2023-05-20T08:09:00;20.40;99.90
23803;DHT22;12082;51.786;6.018;2023-05-20T08:11:26;20.40;99.90
23803;DHT22;12082;51.786;6.018;2023-05-20T08:13:51;20.60;99.90
23803;DHT22;12082;51.786;6.018;2023-05-20T08:16:17;20.60;99.90
23803;DHT22;12082;51.786;6.018;2023-05-20T08:18:42;20.60;99.90
23803;DHT22;12082;51.786;6.018;2023-05-20T08:21:08;20.40;99.90
23803;DHT22;12082;51.786;6.018;2023-05-20T08:23:34;20.40;99.90
23803;DHT22;12082;51.786;6.018;2023-05-20T08:26:01;20.60;99.90
23803;DHT22;12082;51.786;6.018;2023-05-20T08:28:28;20.60;99.90
23803;DHT22;12082;51.786;6.018;2023-05-20T08:30:54;20.70;99.90
23803;DHT22;12082;51.786;6.018;2023-05-20T08:33:19;20.80;99.90
23803;DHT22;12082;51.786;6.018;2023-05-20T08:35:47;20.50;99.90
23803;DHT22;12082;51.786;6.018;2023-05-20T08:38:12;20.50;99.90
23803;DHT22;12082;51.786;6.018;2023-05-20T08:40:38;20.40;99.90
23803;DHT22;12082;51.786;6.018;2023-05-20T08:43:04;20.20;99.90
23803;DHT22;12082;51.786;6.018;2023-05-20T08:45:32;20.10;99.90
23803;DHT22;12082;51.786;6.018;2023-05-20T08:47:58;20.20;99.90
23803;DHT22;12082;51.786;6.018;2023-05-20T08:50:24;20.30;99.90
23803;DHT22;12082;51.786;6.018;2023-05-20T08:52:50;20.60;99.90
23803;DHT22;12082;51.786;6.018;2023-05-20T08:57:53;20.50;99.90
23803;DHT22;12082;51.786;6.018;2023-05-20T09:00:20;20.40;99.90
23803;DHT22;12082;51.786;6.018;2023-05-20T09:02:48;20.60;99.90
23803;DHT22;12082;51.786;6.018;2023-05-20T09:05:13;20.40;99.90
23803;DHT22;12082;51.786;6.018;2023-05-20T09:07:39;20.20;99.90
23803;DHT22;12082;51.786;6.018;2023-05-20T09:10:07;20.40;99.90
23803;DHT22;12082;51.786;6.018;2023-05-20T09:12:33;20.30;99.90
23803;DHT22;12082;51.786;6.018;2023-05-20T09:14:58;20.10;99.90
23803;DHT22;12082;51.786;6.018;2023-05-20T09:17:24;19.90;99.90
23803;DHT22;12082;51.786;6.018;2023-05-20T09:19:50;20.00;99.90
23803;DHT22;12082;51.786;6.018;2023-05-20T09:22:22;20.20;99.90
23803;DHT22;12082;51.786;6.018;2023-05-20T09:24:50;20.20;99.90
23803;DHT22;12082;51.786;6.018;2023-05-20T09:27:16;20.30;99.90
23803;DHT22;12082;51.786;6.018;2023-05-20T09:29:42;20.40;99.90
23803;DHT22;12082;51.786;6.018;2023-05-20T09:32:09;20.20;99.90
23803;DHT22;12082;51.786;6.018;2023-05-20T09:34:36;20.10;99.90
23803;DHT22;12082;51.786;6.018;2023-05-20T09:37:02;20.20;99.90
23803;DHT22;12082;51.786;6.018;2023-05-20T09:39:33;19.90;99.90
23803;DHT22;12082;51.786;6.018;2023-05-20T09:42:10;20.60;99.90
23803;DHT22;12082;51.786;6.018;2023-05-20T09:44:37;19.90;99.90
23803;DHT22;12082;51.786;6.018;2023-05-20T09:47:04;20.10;99.90
23803;DHT22;12082;51.786;6.018;2023-05-20T09:49:31;20.10;99.90
23803;DHT22;12082;51.786;6.018;2023-05-20T09:51:59;20.30;99.90
23803;DHT22;12082;51.786;6.018;2023-05-20T09:54:26;20.50;99.90
23803;DHT22;12082;51.786;6.018;2023-05-20T09:56:53;20.50;99.90
23803;DHT22;12082;51.786;6.018;2023-05-20T09:59:20;20.20;99.90
23803;DHT22;12082;51.786;6.018;2023-05-20T10:01:46;20.20;99.90
23803;DHT22;12082;51.786;6.018;2023-05-20T10:04:13;20.20;99.90
23803;DHT22;12082;51.786;6.018;2023-05-20T10:07:02;20.00;99.90
23803;DHT22;12082;51.786;6.018;2023-05-20T10:12:26;20.00;99.90
23803;DHT22;12082;51.786;6.018;2023-05-20T10:15:09;20.20;99.90
23803;DHT22;12082;51.786;6.018;2023-05-20T10:20:46;20.10;99.90
23803;DHT22;12082;51.786;6.018;2023-05-20T10:23:22;20.10;99.90
23803;DHT22;12082;51.786;6.018;2023-05-20T10:25:52;20.20;99.90
23803;DHT22;12082;51.786;6.018;2023-05-20T10:28:30;20.40;99.90
23803;DHT22;12082;51.786;6.018;2023-05-20T10:30:57;20.60;99.90
23803;DHT22;12082;51.786;6.018;2023-05-20T10:33:25;20.60;99.90
23803;DHT22;12082;51.786;6.018;2023-05-20T10:35:51;20.70;99.90
23803;DHT22;12082;51.786;6.018;2023-05-20T10:38:17;20.30;99.90
23803;DHT22;12082;51.786;6.018;2023-05-20T10:40:43;20.00;99.90
23803;DHT22;12082;51.786;6.018;2023-05-20T10:43:13;20.00;99.90
23803;DHT22;12082;51.786;6.018;2023-05-20T10:45:52;20.00;99.90
23803;DHT22;12082;51.786;6.018;2023-05-20T10:48:26;20.00;99.90
23803;DHT22;12082;51.786;6.018;2023-05-20T10:51:00;20.10;99.90
23803;DHT22;12082;51.786;6.018;2023-05-20T10:53:29;20.20;99.90
23803;DHT22;12082;51.786;6.018;2023-05-20T10:56:02;20.20;99.90
23803;DHT22;12082;51.786;6.018;2023-05-20T10:58:36;20.20;99.90
23803;DHT22;12082;51.786;6.018;2023-05-20T11:01:01;20.50;99.90
23803;DHT22;12082;51.786;6.018;2023-05-20T11:03:28;20.80;99.90
23803;DHT22;12082;51.786;6.018;2023-05-20T11:05:54;21.00;99.90
23803;DHT22;12082;51.786;6.018;2023-05-20T11:08:20;21.10;99.90
23803;DHT22;12082;51.786;6.018;2023-05-20T11:10:46;21.60;99.90
23803;DHT22;12082;51.786;6.018;2023-05-20T11:13:13;21.70;99.90
23803;DHT22;12082;51.786;6.018;2023-05-20T11:15:41;21.70;99.90
23803;DHT22;12082;51.786;6.018;2023-05-20T11:18:10;21.50;99.90
23803;DHT22;12082;51.786;6.018;2023-05-20T11:20:36;21.30;99.90
23803;DHT22;12082;51.786;6.018;2023-05-20T11:23:04;21.30;99.90
23803;DHT22;12082;51.786;6.018;2023-05-20T11:25:30;21.40;99.90
23803;DHT22;12082;51.786;6.018;2023-05-20T11:27:57;21.50;99.90
23803;DHT22;12082;51.786;6.018;2023-05-20T11:30:23;21.20;99.90
23803;DHT22;12082;51.786;6.018;2023-05-20T11:35:24;20.60;99.90
23803;DHT22;12082;51.786;6.018;2023-05-20T11:38:06;20.50;99.90
23803;DHT22;12082;51.786;6.018;2023-05-20T11:40:34;20.40;99.90
23803;DHT22;12082;51.786;6.018;2023-05-20T11:43:01;20.50;99.90
23803;DHT22;12082;51.786;6.018;2023-05-20T11:45:41;20.60;99.90
23803;DHT22;12082;51.786;6.018;2023-05-20T11:48:07;20.50;99.90
23803;DHT22;12082;51.786;6.018;2023-05-20T11:50:36;20.60;99.90
23803;DHT22;12082;51.786;6.018;2023-05-20T11:53:04;20.80;99.90
23803;DHT22;12082;51.786;6.018;2023-05-20T11:55:31;21.00;99.90
23803;DHT22;12082;51.786;6.018;2023-05-20T11:57:58;21.10;99.90
23803;DHT22;12082;51.786;6.018;2023-05-20T12:00:24;20.90;99.90
23803;DHT22;12082;51.786;6.018;2023-05-20T12:02:50;20.80;99.90
23803;DHT22;12082;51.786;6.018;2023-05-20T12:05:17;20.70;99.90
23803;DHT22;12082;51.786;6.018;2023-05-20T12:07:43;20.80;99.90
23803;DHT22;12082;51.786;6.018;2023-05-20T12:10:09;20.90;99.90
23803;DHT22;12082;51.786;6.018;2023-05-20T12:12:35;20.90;99.90
23803;DHT22;12082;51.786;6.018;2023-05-20T12:15:04;20.40;99.90
23803;DHT22;12082;51.786;6.018;2023-05-20T12:17:46;20.40;99.90
23803;DHT22;12082;51.786;6.018;2023-05-20T12:20:14;20.30;99.90
23803;DHT22;12082;51.786;6.018;2023-05-20T12:22:40;20.30;99.90
23803;DHT22;12082;51.786;6.018;2023-05-20T12:25:06;20.40;99.90
23803;DHT22;12082;51.786;6.018;2023-05-20T12:27:31;20.50;99.90
23803;DHT22;12082;51.786;6.018;2023-05-20T12:29:58;20.60;99.90
23803;DHT22;12082;51.786;6.018;2023-05-20T12:32:24;20.60;99.90
23803;DHT22;12082;51.786;6.018;2023-05-20T12:34:49;20.70;99.90
23803;DHT22;12082;51.786;6.018;2023-05-20T12:37:15;20.80;99.90
23803;DHT22;12082;51.786;6.018;2023-05-20T12:39:40;20.90;99.90
23803;DHT22;12082;51.786;6.018;2023-05-20T12:42:06;21.00;99.90
23803;DHT22;12082;51.786;6.018;2023-05-20T12:44:31;20.90;99.90
23803;DHT22;12082;51.786;6.018;2023-05-20T12:46:57;20.80;99.90
23803;DHT22;12082;51.786;6.018;2023-05-20T12:49:23;20.70;99.90
23803;DHT22;12082;51.786;6.018;2023-05-20T12:51:48;20.60;99.90
23803;DHT22;12082;51.786;6.018;2023-05-20T12:54:14;20.50;99.90
23803;DHT22;12082;51.786;6.018;2023-05-20T12:56:39;20.50;99.90
23803;DHT22;12082;51.786;6.018;2023-05-20T12:59:05;20.50;99.90
23803;DHT22;12082;51.786;6.018;2023-05-20T13:01:31;20.50;99.90
23803;DHT22;12082;51.786;6.018;2023-05-20T13:03:57;20.50;99.90
23803;DHT22;12082;51.786;6.018;2023-05-20T13:06:23;20.50;99.90
23803;DHT22;12082;51.786;6.018;2023-05-20T13:08:48;20.40;99.90
23803;DHT22;12082;51.786;6.018;2023-05-20T13:11:14;20.50;99.90
23803;DHT22;12082;51.786;6.018;2023-05-20T13:13:40;20.70;99.90
23803;DHT22;12082;51.786;6.018;2023-05-20T13:16:05;20.60;99.90
23803;DHT22;12082;51.786;6.018;2023-05-20T13:18:31;20.50;99.90
23803;DHT22;12082;51.786;6.018;2023-05-20T13:20:57;20.80;99.90
23803;DHT22;12082;51.786;6.018;2023-05-20T13:23:22;20.90;99.90
23803;DHT22;12082;51.786;6.018;2023-05-20T13:25:48;21.10;99.90
23803;DHT22;12082;51.786;6.018;2023-05-20T13:28:13;21.10;99.90
23803;DHT22;12082;51.786;6.018;2023-05-20T13:30:42;21.10;99.90
23803;DHT22;12082;51.786;6.018;2023-05-20T13:33:08;21.00;99.90
23803;DHT22;12082;51.786;6.018;2023-05-20T13:35:33;21.00;99.90
23803;DHT22;12082;51.786;6.018;2023-05-20T13:37:59;20.90;99.90
23803;DHT22;12082;51.786;6.018;2023-05-20T13:40:24;20.90;99.90
23803;DHT22;12082;51.786;6.018;2023-05-20T13:42:50;20.90;99.90
23803;DHT22;12082;51.786;6.018;2023-05-20T13:45:16;20.90;99.90
23803;DHT22;12082;51.786;6.018;2023-05-20T13:47:43;21.00;99.90
23803;DHT22;12082;51.786;6.018;2023-05-20T13:50:09;21.10;99.90
23803;DHT22;12082;51.786;6.018;2023-05-20T13:52:34;21.20;99.90
23803;DHT22;12082;51.786;6.018;2023-05-20T13:55:00;21.20;99.90
23803;DHT22;12082;51.786;6.018;2023-05-20T13:57:26;21.30;99.90
23803;DHT22;12082;51.786;6.018;2023-05-20T13:59:51;21.10;99.90
23803;DHT22;12082;51.786;6.018;2023-05-20T14:02:17;21.20;99.90
23803;DHT22;12082;51.786;6.018;2023-05-20T14:04:43;21.10;99.90
23803;DHT22;12082;51.786;6.018;2023-05-20T14:07:11;21.10;99.90
23803;DHT22;12082;51.786;6.018;2023-05-20T14:09:37;21.30;99.90
23803;DHT22;12082;51.786;6.018;2023-05-20T14:12:03;21.30;99.90
23803;DHT22;12082;51.786;6.018;2023-05-20T14:14:29;21.30;99.90
23803;DHT22;12082;51.786;6.018;2023-05-20T14:16:54;21.20;99.90
23803;DHT22;12082;51.786;6.018;2023-05-20T14:19:20;21.20;99.90
23803;DHT22;12082;51.786;6.018;2023-05-20T14:21:45;21.10;99.90
23803;DHT22;12082;51.786;6.018;2023-05-20T14:24:11;21.10;99.90
23803;DHT22;12082;51.786;6.018;2023-05-20T14:26:36;21.00;99.90
23803;DHT22;12082;51.786;6.018;2023-05-20T14:29:02;20.90;99.90
23803;DHT22;12082;51.786;6.018;2023-05-20T14:31:28;20.80;99.90
23803;DHT22;12082;51.786;6.018;2023-05-20T14:33:53;20.90;99.90
23803;DHT22;12082;51.786;6.018;2023-05-20T14:36:19;21.00;99.90
23803;DHT22;12082;51.786;6.018;2023-05-20T14:38:45;21.20;99.90
23803;DHT22;12082;51.786;6.018;2023-05-20T14:41:10;21.20;99.90
23803;DHT22;12082;51.786;6.018;2023-05-20T14:43:36;21.20;99.90
23803;DHT22;12082;51.786;6.018;2023-05-20T14:46:02;21.10;99.90
23803;DHT22;12082;51.786;6.018;2023-05-20T14:48:28;21.00;99.90
23803;DHT22;12082;51.786;6.018;2023-05-20T14:50:53;21.00;99.90
23803;DHT22;12082;51.786;6.018;2023-05-20T14:53:19;20.90;99.90
23803;DHT22;12082;51.786;6.018;2023-05-20T14:55:44;20.80;99.90
23803;DHT22;12082;51.786;6.018;2023-05-20T14:58:10;20.90;99.90
23803;DHT22;12082;51.786;6.018;2023-05-20T15:00:36;21.00;99.90
23803;DHT22;12082;51.786;6.018;2023-05-20T15:03:01;21.10;99.90
23803;DHT22;12082;51.786;6.018;2023-05-20T15:05:27;21.10;99.90
23803;DHT22;12082;51.786;6.018;2023-05-20T15:07:52;21.00;99.90
23803;DHT22;12082;51.786;6.018;2023-05-20T15:10:18;21.00;99.90
23803;DHT22;12082;51.786;6.018;2023-05-20T15:12:44;20.90;99.90
23803;DHT22;12082;51.786;6.018;2023-05-20T15:15:10;20.90;99.90
23803;DHT22;12082;51.786;6.018;2023-05-20T15:17:35;20.90;99.90
23803;DHT22;12082;51.786;6.018;2023-05-20T15:20:01;21.10;99.90
23803;DHT22;12082;51.786;6.018;2023-05-20T15:22:27;21.20;99.90
23803;DHT22;12082;51.786;6.018;2023-05-20T15:24:53;21.00;99.90
23803;DHT22;12082;51.786;6.018;2023-05-20T15:27:18;20.80;99.90
23803;DHT22;12082;51.786;6.018;2023-05-20T15:29:44;21.00;99.90
23803;DHT22;12082;51.786;6.018;2023-05-20T15:32:09;21.10;99.90
23803;DHT22;12082;51.786;6.018;2023-05-20T15:34:35;20.90;99.90
23803;DHT22;12082;51.786;6.018;2023-05-20T15:37:01;21.00;99.90
23803;DHT22;12082;51.786;6.018;2023-05-20T15:39:26;21.30;99.90
23803;DHT22;12082;51.786;6.018;2023-05-20T15:41:52;21.50;99.90